Nagoya, Japan
Current Conditions -  °F | °C
As of 7:00 PM on Thursday 23 Oct 2014 (Local Time) from RJGG Reporting Station
Broken Clouds Broken Clouds  
Wind Chill: 64°   Ceiling: 6000
Heat Index: 64°   Visibility: 6mi
Dew Point: 52°   Wind: 12mph
Humidity: 64%   Direction: 320°NW
Pressure: 30.03"   Gusts: NA
Location:  35.15°N, 136.91°E
Report Text: RJGG 231000Z 32010KT 9999 FEW030 BKN060 18/11 Q1017 NOSIG
Loading
Personal Weather Stations






























Interactive Weather Map
Tropical Storm Tracking
New forecast layout! Learn more

10-Day Weather Forecast

Advertisements
Track Severe Weather on mobile